sensor_id;sensor_type;location;lat;lon;timestamp;temperature;humidity
61641;HTU21D;62201;49.966;8.342;2023-09-08T00:01:32;18.49;118.99
61641;HTU21D;62201;49.966;8.342;2023-09-08T00:03:58;18.52;118.99
61641;HTU21D;62201;49.966;8.342;2023-09-08T00:06:23;18.52;118.99
61641;HTU21D;62201;49.966;8.342;2023-09-08T00:08:48;18.42;118.99
61641;HTU21D;62201;49.966;8.342;2023-09-08T00:11:14;18.34;118.99
61641;HTU21D;62201;49.966;8.342;2023-09-08T00:13:39;18.36;118.99
61641;HTU21D;62201;49.966;8.342;2023-09-08T00:16:05;18.28;118.99
61641;HTU21D;62201;49.966;8.342;2023-09-08T00:18:32;18.21;118.99
61641;HTU21D;62201;49.966;8.342;2023-09-08T00:20:58;18.17;118.99
61641;HTU21D;62201;49.966;8.342;2023-09-08T00:23:23;18.12;118.99
61641;HTU21D;62201;49.966;8.342;2023-09-08T00:25:49;18.12;118.99
61641;HTU21D;62201;49.966;8.342;2023-09-08T00:28:14;18.19;118.99
61641;HTU21D;62201;49.966;8.342;2023-09-08T00:30:39;18.27;118.99
61641;HTU21D;62201;49.966;8.342;2023-09-08T00:33:05;18.43;118.99
61641;HTU21D;62201;49.966;8.342;2023-09-08T00:35:34;18.46;118.99
61641;HTU21D;62201;49.966;8.342;2023-09-08T00:37:59;18.58;118.99
61641;HTU21D;62201;49.966;8.342;2023-09-08T00:40:26;18.56;118.99
61641;HTU21D;62201;49.966;8.342;2023-09-08T00:42:52;18.57;118.99
61641;HTU21D;62201;49.966;8.342;2023-09-08T00:45:17;18.72;118.99
61641;HTU21D;62201;49.966;8.342;2023-09-08T00:47:43;18.86;118.99
61641;HTU21D;62201;49.966;8.342;2023-09-08T00:50:08;18.94;118.99
61641;HTU21D;62201;49.966;8.342;2023-09-08T00:52:34;18.94;118.99
61641;HTU21D;62201;49.966;8.342;2023-09-08T00:54:59;18.79;118.99
61641;HTU21D;62201;49.966;8.342;2023-09-08T00:57:25;18.74;118.99
61641;HTU21D;62201;49.966;8.342;2023-09-08T00:59:50;18.67;118.99
61641;HTU21D;62201;49.966;8.342;2023-09-08T01:02:16;18.62;118.99
61641;HTU21D;62201;49.966;8.342;2023-09-08T01:04:41;18.53;118.99
61641;HTU21D;62201;49.966;8.342;2023-09-08T01:07:08;18.41;118.99
61641;HTU21D;62201;49.966;8.342;2023-09-08T01:09:34;18.46;118.99
61641;HTU21D;62201;49.966;8.342;2023-09-08T01:11:59;18.57;118.99
61641;HTU21D;62201;49.966;8.342;2023-09-08T01:14:27;18.68;118.99
61641;HTU21D;62201;49.966;8.342;2023-09-08T01:16:54;18.78;118.62
61641;HTU21D;62201;49.966;8.342;2023-09-08T01:19:19;18.83;118.49
61641;HTU21D;62201;49.966;8.342;2023-09-08T01:22:00;18.86;116.98
61641;HTU21D;62201;49.966;8.342;2023-09-08T01:24:46;18.81;116.92
61641;HTU21D;62201;49.966;8.342;2023-09-08T01:27:16;18.84;116.20
61641;HTU21D;62201;49.966;8.342;2023-09-08T01:29:44;18.79;116.18
61641;HTU21D;62201;49.966;8.342;2023-09-08T01:32:10;18.71;116.51
61641;HTU21D;62201;49.966;8.342;2023-09-08T01:34:37;18.80;115.24
61641;HTU21D;62201;49.966;8.342;2023-09-08T01:37:06;18.78;114.83
61641;HTU21D;62201;49.966;8.342;2023-09-08T01:39:31;18.88;113.41
61641;HTU21D;62201;49.966;8.342;2023-09-08T01:41:56;18.85;113.02
61641;HTU21D;62201;49.966;8.342;2023-09-08T01:44:22;18.76;113.71
61641;HTU21D;62201;49.966;8.342;2023-09-08T01:46:47;18.67;114.09
61641;HTU21D;62201;49.966;8.342;2023-09-08T01:49:12;18.63;114.35
61641;HTU21D;62201;49.966;8.342;2023-09-08T01:51:38;18.57;114.61
61641;HTU21D;62201;49.966;8.342;2023-09-08T01:54:03;18.50;115.09
61641;HTU21D;62201;49.966;8.342;2023-09-08T01:56:29;18.56;114.08
61641;HTU21D;62201;49.966;8.342;2023-09-08T01:58:54;18.68;112.68
61641;HTU21D;62201;49.966;8.342;2023-09-08T02:01:19;18.68;112.71
61641;HTU21D;62201;49.966;8.342;2023-09-08T02:03:45;18.52;115.36
61641;HTU21D;62201;49.966;8.342;2023-09-08T02:06:10;18.40;116.83
61641;HTU21D;62201;49.966;8.342;2023-09-08T02:08:35;18.39;116.63
61641;HTU21D;62201;49.966;8.342;2023-09-08T02:11:01;18.39;116.31
61641;HTU21D;62201;49.966;8.342;2023-09-08T02:13:26;18.55;114.77
61641;HTU21D;62201;49.966;8.342;2023-09-08T02:15:51;18.50;116.38
61641;HTU21D;62201;49.966;8.342;2023-09-08T02:18:17;18.33;118.66
61641;HTU21D;62201;49.966;8.342;2023-09-08T02:20:42;18.24;118.99
61641;HTU21D;62201;49.966;8.342;2023-09-08T02:23:07;18.20;118.78
61641;HTU21D;62201;49.966;8.342;2023-09-08T02:25:33;18.24;118.77
61641;HTU21D;62201;49.966;8.342;2023-09-08T02:27:58;18.23;118.14
61641;HTU21D;62201;49.966;8.342;2023-09-08T02:30:23;18.19;118.99
61641;HTU21D;62201;49.966;8.342;2023-09-08T02:32:49;18.12;118.88
61641;HTU21D;62201;49.966;8.342;2023-09-08T02:35:14;18.17;118.16
61641;HTU21D;62201;49.966;8.342;2023-09-08T02:37:40;18.23;118.31
61641;HTU21D;62201;49.966;8.342;2023-09-08T02:40:06;18.21;117.69
61641;HTU21D;62201;49.966;8.342;2023-09-08T02:42:31;18.23;117.15
61641;HTU21D;62201;49.966;8.342;2023-09-08T02:44:57;18.42;114.72
61641;HTU21D;62201;49.966;8.342;2023-09-08T02:47:22;18.47;113.80
61641;HTU21D;62201;49.966;8.342;2023-09-08T02:49:47;18.47;113.53
61641;HTU21D;62201;49.966;8.342;2023-09-08T02:52:13;18.43;113.42
61641;HTU21D;62201;49.966;8.342;2023-09-08T02:54:38;18.35;114.29
61641;HTU21D;62201;49.966;8.342;2023-09-08T02:57:04;18.32;114.43
61641;HTU21D;62201;49.966;8.342;2023-09-08T02:59:30;18.26;115.28
61641;HTU21D;62201;49.966;8.342;2023-09-08T03:01:55;18.17;116.86
61641;HTU21D;62201;49.966;8.342;2023-09-08T03:04:20;18.07;116.79
61641;HTU21D;62201;49.966;8.342;2023-09-08T03:06:46;17.95;117.54
61641;HTU21D;62201;49.966;8.342;2023-09-08T03:09:11;17.84;118.36
61641;HTU21D;62201;49.966;8.342;2023-09-08T03:11:36;17.74;118.99
61641;HTU21D;62201;49.966;8.342;2023-09-08T03:14:02;17.72;118.99
61641;HTU21D;62201;49.966;8.342;2023-09-08T03:16:27;17.72;118.99
61641;HTU21D;62201;49.966;8.342;2023-09-08T03:18:53;17.59;118.99
61641;HTU21D;62201;49.966;8.342;2023-09-08T03:21:18;17.52;118.99
61641;HTU21D;62201;49.966;8.342;2023-09-08T03:23:45;17.53;118.99
61641;HTU21D;62201;49.966;8.342;2023-09-08T03:26:11;17.54;118.99
61641;HTU21D;62201;49.966;8.342;2023-09-08T03:28:37;17.50;118.99
61641;HTU21D;62201;49.966;8.342;2023-09-08T03:31:04;17.51;118.99
61641;HTU21D;62201;49.966;8.342;2023-09-08T03:33:29;17.48;118.99
61641;HTU21D;62201;49.966;8.342;2023-09-08T03:35:55;17.48;118.99
61641;HTU21D;62201;49.966;8.342;2023-09-08T03:38:21;17.48;118.99
61641;HTU21D;62201;49.966;8.342;2023-09-08T03:40:46;17.43;118.99
61641;HTU21D;62201;49.966;8.342;2023-09-08T03:43:12;17.37;118.99
61641;HTU21D;62201;49.966;8.342;2023-09-08T03:45:37;17.41;118.99
61641;HTU21D;62201;49.966;8.342;2023-09-08T03:48:02;17.47;118.99
61641;HTU21D;62201;49.966;8.342;2023-09-08T03:50:28;17.51;118.99
61641;HTU21D;62201;49.966;8.342;2023-09-08T03:52:55;17.54;118.99
61641;HTU21D;62201;49.966;8.342;2023-09-08T03:55:20;17.56;118.99
61641;HTU21D;62201;49.966;8.342;2023-09-08T03:57:46;17.64;118.99
61641;HTU21D;62201;49.966;8.342;2023-09-08T04:00:11;17.72;118.99
61641;HTU21D;62201;49.966;8.342;2023-09-08T04:02:37;17.72;118.99
61641;HTU21D;62201;49.966;8.342;2023-09-08T04:05:03;17.76;118.99
61641;HTU21D;62201;49.966;8.342;2023-09-08T04:07:28;17.82;118.99
61641;HTU21D;62201;49.966;8.342;2023-09-08T04:09:54;17.80;118.99
61641;HTU21D;62201;49.966;8.342;2023-09-08T04:12:19;17.92;118.99
61641;HTU21D;62201;49.966;8.342;2023-09-08T04:14:44;17.96;118.98
61641;HTU21D;62201;49.966;8.342;2023-09-08T04:17:10;17.92;118.99
61641;HTU21D;62201;49.966;8.342;2023-09-08T04:19:35;17.85;118.99
61641;HTU21D;62201;49.966;8.342;2023-09-08T04:22:00;17.80;118.99
61641;HTU21D;62201;49.966;8.342;2023-09-08T04:24:26;17.79;118.99
61641;HTU21D;62201;49.966;8.342;2023-09-08T04:26:51;17.79;118.99
61641;HTU21D;62201;49.966;8.342;2023-09-08T04:29:17;17.76;118.99
61641;HTU21D;62201;49.966;8.342;2023-09-08T04:31:42;17.67;118.99
61641;HTU21D;62201;49.966;8.342;2023-09-08T04:34:07;17.61;118.99
61641;HTU21D;62201;49.966;8.342;2023-09-08T04:36:33;17.53;118.99
61641;HTU21D;62201;49.966;8.342;2023-09-08T04:38:58;17.46;118.99
61641;HTU21D;62201;49.966;8.342;2023-09-08T04:41:23;17.39;118.99
61641;HTU21D;62201;49.966;8.342;2023-09-08T04:43:49;17.34;118.99
61641;HTU21D;62201;49.966;8.342;2023-09-08T04:46:14;17.28;118.99
61641;HTU21D;62201;49.966;8.342;2023-09-08T04:48:39;17.22;118.99
61641;HTU21D;62201;49.966;8.342;2023-09-08T04:51:05;17.17;118.99
61641;HTU21D;62201;49.966;8.342;2023-09-08T04:53:30;17.17;118.99
61641;HTU21D;62201;49.966;8.342;2023-09-08T04:55:55;17.21;118.99
61641;HTU21D;62201;49.966;8.342;2023-09-08T04:58:21;17.21;118.99
61641;HTU21D;62201;49.966;8.342;2023-09-08T05:00:46;17.18;118.99
61641;HTU21D;62201;49.966;8.342;2023-09-08T05:03:12;17.20;118.99
61641;HTU21D;62201;49.966;8.342;2023-09-08T05:05:37;17.26;118.99
61641;HTU21D;62201;49.966;8.342;2023-09-08T05:08:04;17.30;118.99
61641;HTU21D;62201;49.966;8.342;2023-09-08T05:10:29;17.39;118.99
61641;HTU21D;62201;49.966;8.342;2023-09-08T05:12:55;17.41;118.99
61641;HTU21D;62201;49.966;8.342;2023-09-08T05:15:20;17.48;118.99
61641;HTU21D;62201;49.966;8.342;2023-09-08T05:17:46;17.46;118.99
61641;HTU21D;62201;49.966;8.342;2023-09-08T05:20:12;17.44;118.99
61641;HTU21D;62201;49.966;8.342;2023-09-08T05:22:37;17.55;118.99
61641;HTU21D;62201;49.966;8.342;2023-09-08T05:25:03;17.62;118.99
61641;HTU21D;62201;49.966;8.342;2023-09-08T05:27:29;17.73;118.99
61641;HTU21D;62201;49.966;8.342;2023-09-08T05:29:54;17.83;118.99
61641;HTU21D;62201;49.966;8.342;2023-09-08T05:32:20;17.89;118.99
61641;HTU21D;62201;49.966;8.342;2023-09-08T05:34:45;17.93;118.99
61641;HTU21D;62201;49.966;8.342;2023-09-08T05:37:11;17.95;118.99
61641;HTU21D;62201;49.966;8.342;2023-09-08T05:39:37;18.04;118.99
61641;HTU21D;62201;49.966;8.342;2023-09-08T05:42:03;18.06;118.99
61641;HTU21D;62201;49.966;8.342;2023-09-08T05:44:28;18.13;118.99
61641;HTU21D;62201;49.966;8.342;2023-09-08T05:46:53;18.17;118.99
61641;HTU21D;62201;49.966;8.342;2023-09-08T05:49:19;18.22;118.99
61641;HTU21D;62201;49.966;8.342;2023-09-08T05:51:44;18.29;118.78
61641;HTU21D;62201;49.966;8.342;2023-09-08T05:54:10;18.38;117.79
61641;HTU21D;62201;49.966;8.342;2023-09-08T05:56:36;18.47;116.92
61641;HTU21D;62201;49.966;8.342;2023-09-08T05:59:02;18.57;115.35
61641;HTU21D;62201;49.966;8.342;2023-09-08T06:01:28;18.62;115.28
61641;HTU21D;62201;49.966;8.342;2023-09-08T06:03:53;18.68;115.04
61641;HTU21D;62201;49.966;8.342;2023-09-08T06:06:20;18.74;114.00
61641;HTU21D;62201;49.966;8.342;2023-09-08T06:08:45;18.81;113.84
61641;HTU21D;62201;49.966;8.342;2023-09-08T06:11:11;18.85;113.61
61641;HTU21D;62201;49.966;8.342;2023-09-08T06:13:37;18.89;113.09
61641;HTU21D;62201;49.966;8.342;2023-09-08T06:16:03;18.94;113.22
61641;HTU21D;62201;49.966;8.342;2023-09-08T06:18:28;18.98;112.97
61641;HTU21D;62201;49.966;8.342;2023-09-08T06:20:57;19.06;111.94
61641;HTU21D;62201;49.966;8.342;2023-09-08T06:23:23;19.09;112.11
61641;HTU21D;62201;49.966;8.342;2023-09-08T06:25:49;19.16;111.16
61641;HTU21D;62201;49.966;8.342;2023-09-08T06:28:14;19.26;109.26
61641;HTU21D;62201;49.966;8.342;2023-09-08T06:30:40;19.30;109.07
61641;HTU21D;62201;49.966;8.342;2023-09-08T06:33:07;19.38;107.90
61641;HTU21D;62201;49.966;8.342;2023-09-08T06:35:33;19.47;106.75
61641;HTU21D;62201;49.966;8.342;2023-09-08T06:37:59;19.53;104.75
61641;HTU21D;62201;49.966;8.342;2023-09-08T06:40:24;19.59;104.37
61641;HTU21D;62201;49.966;8.342;2023-09-08T06:42:50;19.67;103.32
61641;HTU21D;62201;49.966;8.342;2023-09-08T06:45:15;19.71;103.25
61641;HTU21D;62201;49.966;8.342;2023-09-08T06:47:42;19.74;102.67
61641;HTU21D;62201;49.966;8.342;2023-09-08T06:50:07;19.82;101.88
61641;HTU21D;62201;49.966;8.342;2023-09-08T06:52:33;19.90;100.71
61641;HTU21D;62201;49.966;8.342;2023-09-08T06:54:58;19.95;101.22
61641;HTU21D;62201;49.966;8.342;2023-09-08T06:57:23;20.06;100.51
61641;HTU21D;62201;49.966;8.342;2023-09-08T06:59:49;20.18;99.13
61641;HTU21D;62201;49.966;8.342;2023-09-08T07:02:14;20.26;97.36
61641;HTU21D;62201;49.966;8.342;2023-09-08T07:04:40;20.32;96.66
61641;HTU21D;62201;49.966;8.342;2023-09-08T07:07:05;20.47;95.83
61641;HTU21D;62201;49.966;8.342;2023-09-08T07:09:36;20.58;95.60
61641;HTU21D;62201;49.966;8.342;2023-09-08T07:12:05;20.70;94.47
61641;HTU21D;62201;49.966;8.342;2023-09-08T07:14:34;20.77;92.30
61641;HTU21D;62201;49.966;8.342;2023-09-08T07:16:59;20.80;91.48
61641;HTU21D;62201;49.966;8.342;2023-09-08T07:19:26;20.87;91.10
61641;HTU21D;62201;49.966;8.342;2023-09-08T07:21:52;20.96;89.25
61641;HTU21D;62201;49.966;8.342;2023-09-08T07:24:17;21.04;89.30
61641;HTU21D;62201;49.966;8.342;2023-09-08T07:26:43;21.10;88.29
61641;HTU21D;62201;49.966;8.342;2023-09-08T07:29:08;21.16;87.89
61641;HTU21D;62201;49.966;8.342;2023-09-08T07:31:33;21.30;87.65
61641;HTU21D;62201;49.966;8.342;2023-09-08T07:33:59;21.37;86.53
61641;HTU21D;62201;49.966;8.342;2023-09-08T07:36:24;21.37;86.33
61641;HTU21D;62201;49.966;8.342;2023-09-08T07:38:50;21.51;84.75
61641;HTU21D;62201;49.966;8.342;2023-09-08T07:41:15;21.67;84.28
61641;HTU21D;62201;49.966;8.342;2023-09-08T07:43:41;21.76;83.82
61641;HTU21D;62201;49.966;8.342;2023-09-08T07:46:07;21.80;83.46
61641;HTU21D;62201;49.966;8.342;2023-09-08T07:48:33;21.95;81.16
61641;HTU21D;62201;49.966;8.342;2023-09-08T07:50:58;22.06;81.39
61641;HTU21D;62201;49.966;8.342;2023-09-08T07:53:26;22.19;80.14
61641;HTU21D;62201;49.966;8.342;2023-09-08T07:55:52;22.26;79.04
61641;HTU21D;62201;49.966;8.342;2023-09-08T07:58:17;22.42;79.09
61641;HTU21D;62201;49.966;8.342;2023-09-08T08:00:42;22.56;78.17
61641;HTU21D;62201;49.966;8.342;2023-09-08T08:03:08;22.67;76.14
61641;HTU21D;62201;49.966;8.342;2023-09-08T08:05:34;22.71;75.62
61641;HTU21D;62201;49.966;8.342;2023-09-08T08:07:59;22.83;75.18
61641;HTU21D;62201;49.966;8.342;2023-09-08T08:10:25;23.13;73.35
61641;HTU21D;62201;49.966;8.342;2023-09-08T08:12:51;23.71;71.33
61641;HTU21D;62201;49.966;8.342;2023-09-08T08:15:20;24.10;67.88
61641;HTU21D;62201;49.966;8.342;2023-09-08T08:17:46;25.28;63.77
61641;HTU21D;62201;49.966;8.342;2023-09-08T08:20:12;26.26;61.41
61641;HTU21D;62201;49.966;8.342;2023-09-08T08:22:43;26.58;58.08
61641;HTU21D;62201;49.966;8.342;2023-09-08T08:25:09;27.25;57.22
61641;HTU21D;62201;49.966;8.342;2023-09-08T08:27:34;26.97;56.40
61641;HTU21D;62201;49.966;8.342;2023-09-08T08:30:00;27.50;55.07
61641;HTU21D;62201;49.966;8.342;2023-09-08T08:32:27;27.72;54.01
61641;HTU21D;62201;49.966;8.342;2023-09-08T08:34:52;27.88;52.78
61641;HTU21D;62201;49.966;8.342;2023-09-08T08:37:18;28.05;51.54
61641;HTU21D;62201;49.966;8.342;2023-09-08T08:39:43;27.87;51.81
61641;HTU21D;62201;49.966;8.342;2023-09-08T08:42:12;28.12;50.18
61641;HTU21D;62201;49.966;8.342;2023-09-08T08:44:38;28.08;51.02
61641;HTU21D;62201;49.966;8.342;2023-09-08T08:47:06;28.44;48.73
61641;HTU21D;62201;49.966;8.342;2023-09-08T08:49:32;28.39;48.99
61641;HTU21D;62201;49.966;8.342;2023-09-08T08:51:58;28.28;49.36
61641;HTU21D;62201;49.966;8.342;2023-09-08T08:54:24;28.37;49.15
61641;HTU21D;62201;49.966;8.342;2023-09-08T08:56:50;28.78;48.50
61641;HTU21D;62201;49.966;8.342;2023-09-08T08:59:15;29.64;46.51
61641;HTU21D;62201;49.966;8.342;2023-09-08T09:01:42;29.66;45.96
61641;HTU21D;62201;49.966;8.342;2023-09-08T09:04:08;30.24;44.35
61641;HTU21D;62201;49.966;8.342;2023-09-08T09:06:35;30.44;43.54
61641;HTU21D;62201;49.966;8.342;2023-09-08T09:09:00;31.08;42.44
61641;HTU21D;62201;49.966;8.342;2023-09-08T09:11:27;31.72;40.62
61641;HTU21D;62201;49.966;8.342;2023-09-08T09:13:52;31.38;41.28
61641;HTU21D;62201;49.966;8.342;2023-09-08T09:16:17;31.04;41.84
61641;HTU21D;62201;49.966;8.342;2023-09-08T09:18:57;31.69;39.49
61641;HTU21D;62201;49.966;8.342;2023-09-08T09:21:23;32.20;39.54
61641;HTU21D;62201;49.966;8.342;2023-09-08T09:23:49;32.48;38.67
61641;HTU21D;62201;49.966;8.342;2023-09-08T09:26:25;31.98;38.59
61641;HTU21D;62201;49.966;8.342;2023-09-08T09:28:51;30.95;41.12
61641;HTU21D;62201;49.966;8.342;2023-09-08T09:31:18;31.19;40.84
61641;HTU21D;62201;49.966;8.342;2023-09-08T09:33:44;31.45;40.52
61641;HTU21D;62201;49.966;8.342;2023-09-08T09:36:19;32.35;37.96
61641;HTU21D;62201;49.966;8.342;2023-09-08T09:38:45;32.22;38.55
61641;HTU21D;62201;49.966;8.342;2023-09-08T09:41:12;31.45;39.64
61641;HTU21D;62201;49.966;8.342;2023-09-08T09:43:37;31.95;38.71
61641;HTU21D;62201;49.966;8.342;2023-09-08T09:46:02;32.85;37.52
61641;HTU21D;62201;49.966;8.342;2023-09-08T09:48:28;33.14;36.51
61641;HTU21D;62201;49.966;8.342;2023-09-08T09:50:53;33.07;36.84
61641;HTU21D;62201;49.966;8.342;2023-09-08T09:53:20;32.59;37.56
61641;HTU21D;62201;49.966;8.342;2023-09-08T09:55:46;33.12;37.02
61641;HTU21D;62201;49.966;8.342;2023-09-08T09:58:11;32.93;36.69
61641;HTU21D;62201;49.966;8.342;2023-09-08T10:00:38;33.03;36.51
61641;HTU21D;62201;49.966;8.342;2023-09-08T10:03:05;33.26;36.22
61641;HTU21D;62201;49.966;8.342;2023-09-08T10:05:31;33.99;33.95
61641;HTU21D;62201;49.966;8.342;2023-09-08T10:07:57;33.91;34.89
61641;HTU21D;62201;49.966;8.342;2023-09-08T10:10:23;33.20;35.73
61641;HTU21D;62201;49.966;8.342;2023-09-08T10:12:54;32.11;37.39
61641;HTU21D;62201;49.966;8.342;2023-09-08T10:15:21;32.45;36.76
61641;HTU21D;62201;49.966;8.342;2023-09-08T10:17:55;31.83;37.21
61641;HTU21D;62201;49.966;8.342;2023-09-08T10:20:23;32.30;36.71
61641;HTU21D;62201;49.966;8.342;2023-09-08T10:22:52;32.97;35.40
61641;HTU21D;62201;49.966;8.342;2023-09-08T10:25:20;32.84;35.98
61641;HTU21D;62201;49.966;8.342;2023-09-08T10:27:46;31.87;37.25
61641;HTU21D;62201;49.966;8.342;2023-09-08T10:30:12;32.49;36.30
61641;HTU21D;62201;49.966;8.342;2023-09-08T10:32:38;32.79;35.61
61641;HTU21D;62201;49.966;8.342;2023-09-08T10:35:06;32.33;35.95
61641;HTU21D;62201;49.966;8.342;2023-09-08T10:37:32;31.84;37.03
61641;HTU21D;62201;49.966;8.342;2023-09-08T10:40:22;31.88;36.61
61641;HTU21D;62201;49.966;8.342;2023-09-08T10:42:48;31.45;37.61
61641;HTU21D;62201;49.966;8.342;2023-09-08T10:45:17;31.30;38.11
61641;HTU21D;62201;49.966;8.342;2023-09-08T10:50:17;32.19;36.61
61641;HTU21D;62201;49.966;8.342;2023-09-08T10:52:44;31.69;37.69
61641;HTU21D;62201;49.966;8.342;2023-09-08T10:55:11;32.68;35.92
61641;HTU21D;62201;49.966;8.342;2023-09-08T10:57:38;32.88;35.85
61641;HTU21D;62201;49.966;8.342;2023-09-08T11:00:09;32.84;35.39
61641;HTU21D;62201;49.966;8.342;2023-09-08T11:05:08;33.02;35.45
61641;HTU21D;62201;49.966;8.342;2023-09-08T11:07:38;33.40;34.79
61641;HTU21D;62201;49.966;8.342;2023-09-08T11:10:04;32.77;35.65
61641;HTU21D;62201;49.966;8.342;2023-09-08T11:12:31;32.91;35.59
61641;HTU21D;62201;49.966;8.342;2023-09-08T11:14:57;33.28;34.71
61641;HTU21D;62201;49.966;8.342;2023-09-08T11:17:26;32.77;34.80
61641;HTU21D;62201;49.966;8.342;2023-09-08T11:19:51;32.69;34.70
61641;HTU21D;62201;49.966;8.342;2023-09-08T11:22:17;33.05;34.42
61641;HTU21D;62201;49.966;8.342;2023-09-08T11:24:44;33.50;33.60
61641;HTU21D;62201;49.966;8.342;2023-09-08T11:27:11;32.85;34.43
61641;HTU21D;62201;49.966;8.342;2023-09-08T11:29:36;33.16;34.15
61641;HTU21D;62201;49.966;8.342;2023-09-08T11:32:08;32.98;34.87
61641;HTU21D;62201;49.966;8.342;2023-09-08T11:34:35;32.83;34.91
61641;HTU21D;62201;49.966;8.342;2023-09-08T11:37:07;31.74;37.06
61641;HTU21D;62201;49.966;8.342;2023-09-08T11:39:42;31.80;37.08
61641;HTU21D;62201;49.966;8.342;2023-09-08T11:42:08;32.53;35.93
61641;HTU21D;62201;49.966;8.342;2023-09-08T11:44:37;32.35;36.76
61641;HTU21D;62201;49.966;8.342;2023-09-08T11:47:04;32.70;36.23
61641;HTU21D;62201;49.966;8.342;2023-09-08T11:49:38;32.55;37.02
61641;HTU21D;62201;49.966;8.342;2023-09-08T11:52:04;33.00;35.88
61641;HTU21D;62201;49.966;8.342;2023-09-08T11:54:31;32.78;36.25
61641;HTU21D;62201;49.966;8.342;2023-09-08T11:56:58;32.99;35.33
61641;HTU21D;62201;49.966;8.342;2023-09-08T11:59:25;33.09;35.08
61641;HTU21D;62201;49.966;8.342;2023-09-08T12:01:50;33.18;34.94
61641;HTU21D;62201;49.966;8.342;2023-09-08T12:04:20;33.44;34.24
61641;HTU21D;62201;49.966;8.342;2023-09-08T12:06:51;33.15;34.38
61641;HTU21D;62201;49.966;8.342;2023-09-08T12:09:16;33.01;34.90
61641;HTU21D;62201;49.966;8.342;2023-09-08T12:11:42;33.15;34.51
61641;HTU21D;62201;49.966;8.342;2023-09-08T12:14:10;33.12;34.08
61641;HTU21D;62201;49.966;8.342;2023-09-08T12:16:35;32.98;34.89
61641;HTU21D;62201;49.966;8.342;2023-09-08T12:19:01;32.50;35.70
61641;HTU21D;62201;49.966;8.342;2023-09-08T12:21:27;32.30;36.45
61641;HTU21D;62201;49.966;8.342;2023-09-08T12:23:53;32.49;35.38
61641;HTU21D;62201;49.966;8.342;2023-09-08T12:26:20;32.37;35.63
61641;HTU21D;62201;49.966;8.342;2023-09-08T12:28:46;32.81;34.60
61641;HTU21D;62201;49.966;8.342;2023-09-08T12:31:13;32.93;34.36
61641;HTU21D;62201;49.966;8.342;2023-09-08T12:33:39;31.98;35.72
61641;HTU21D;62201;49.966;8.342;2023-09-08T12:36:15;32.16;35.50
61641;HTU21D;62201;49.966;8.342;2023-09-08T12:38:49;32.25;35.60
61641;HTU21D;62201;49.966;8.342;2023-09-08T12:41:15;32.04;35.98
61641;HTU21D;62201;49.966;8.342;2023-09-08T12:43:40;31.92;36.50
61641;HTU21D;62201;49.966;8.342;2023-09-08T12:46:06;32.43;36.08
61641;HTU21D;62201;49.966;8.342;2023-09-08T12:48:31;32.31;35.64
61641;HTU21D;62201;49.966;8.342;2023-09-08T12:50:57;32.33;35.50
61641;HTU21D;62201;49.966;8.342;2023-09-08T12:53:22;32.73;35.07
61641;HTU21D;62201;49.966;8.342;2023-09-08T12:55:48;32.81;34.69
61641;HTU21D;62201;49.966;8.342;2023-09-08T12:58:14;33.05;34.18
61641;HTU21D;62201;49.966;8.342;2023-09-08T13:00:40;32.72;34.63
61641;HTU21D;62201;49.966;8.342;2023-09-08T13:03:06;32.72;33.95
61641;HTU21D;62201;49.966;8.342;2023-09-08T13:05:31;32.60;33.92
61641;HTU21D;62201;49.966;8.342;2023-09-08T13:07:56;32.19;34.46
61641;HTU21D;62201;49.966;8.342;2023-09-08T13:10:22;32.50;34.65
61641;HTU21D;62201;49.966;8.342;2023-09-08T13:12:47;32.67;34.68
61641;HTU21D;62201;49.966;8.342;2023-09-08T13:15:14;32.91;34.77
61641;HTU21D;62201;49.966;8.342;2023-09-08T13:17:39;33.26;33.99
61641;HTU21D;62201;49.966;8.342;2023-09-08T13:20:05;33.18;33.79
61641;HTU21D;62201;49.966;8.342;2023-09-08T13:22:32;33.01;33.41
61641;HTU21D;62201;49.966;8.342;2023-09-08T13:24:57;33.41;33.90
61641;HTU21D;62201;49.966;8.342;2023-09-08T13:27:23;33.52;33.41
61641;HTU21D;62201;49.966;8.342;2023-09-08T13:29:48;34.01;32.25
61641;HTU21D;62201;49.966;8.342;2023-09-08T13:32:14;33.35;31.32
61641;HTU21D;62201;49.966;8.342;2023-09-08T13:34:39;33.25;31.83
61641;HTU21D;62201;49.966;8.342;2023-09-08T13:37:05;34.05;30.63
61641;HTU21D;62201;49.966;8.342;2023-09-08T13:39:30;34.49;29.55
61641;HTU21D;62201;49.966;8.342;2023-09-08T13:41:59;34.65;29.54
61641;HTU21D;62201;49.966;8.342;2023-09-08T13:44:25;34.88;29.81
61641;HTU21D;62201;49.966;8.342;2023-09-08T13:46:51;34.96;29.92
61641;HTU21D;62201;49.966;8.342;2023-09-08T13:49:17;34.94;29.26
61641;HTU21D;62201;49.966;8.342;2023-09-08T13:51:43;35.03;28.90
61641;HTU21D;62201;49.966;8.342;2023-09-08T13:54:09;35.70;27.75
61641;HTU21D;62201;49.966;8.342;2023-09-08T13:56:34;35.48;28.51
61641;HTU21D;62201;49.966;8.342;2023-09-08T13:59:01;35.70;28.59
61641;HTU21D;62201;49.966;8.342;2023-09-08T14:01:27;35.86;28.19
61641;HTU21D;62201;49.966;8.342;2023-09-08T14:03:57;35.06;28.74
61641;HTU21D;62201;49.966;8.342;2023-09-08T14:06:23;34.55;29.76
61641;HTU21D;62201;49.966;8.342;2023-09-08T14:08:49;35.73;27.97
61641;HTU21D;62201;49.966;8.342;2023-09-08T14:11:14;36.26;27.45
61641;HTU21D;62201;49.966;8.342;2023-09-08T14:13:40;36.16;27.52
61641;HTU21D;62201;49.966;8.342;2023-09-08T14:16:05;35.29;28.43
61641;HTU21D;62201;49.966;8.342;2023-09-08T14:18:31;35.16;28.64
61641;HTU21D;62201;49.966;8.342;2023-09-08T14:20:56;35.77;27.63
61641;HTU21D;62201;49.966;8.342;2023-09-08T14:23:22;35.88;28.41
61641;HTU21D;62201;49.966;8.342;2023-09-08T14:25:47;35.53;28.39
61641;HTU21D;62201;49.966;8.342;2023-09-08T14:28:12;35.49;28.27
61641;HTU21D;62201;49.966;8.342;2023-09-08T14:30:38;35.51;28.55
61641;HTU21D;62201;49.966;8.342;2023-09-08T14:33:05;36.13;27.39
61641;HTU21D;62201;49.966;8.342;2023-09-08T14:35:32;35.80;27.55
61641;HTU21D;62201;49.966;8.342;2023-09-08T14:37:57;34.96;29.32
61641;HTU21D;62201;49.966;8.342;2023-09-08T14:40:23;35.65;27.94
61641;HTU21D;62201;49.966;8.342;2023-09-08T14:42:48;35.09;28.76
61641;HTU21D;62201;49.966;8.342;2023-09-08T14:45:13;35.52;27.97
61641;HTU21D;62201;49.966;8.342;2023-09-08T14:47:39;36.27;26.94
61641;HTU21D;62201;49.966;8.342;2023-09-08T14:50:05;36.52;26.20
61641;HTU21D;62201;49.966;8.342;2023-09-08T14:52:30;36.76;26.34
61641;HTU21D;62201;49.966;8.342;2023-09-08T14:54:56;36.89;25.68
61641;HTU21D;62201;49.966;8.342;2023-09-08T14:57:21;36.56;25.36
61641;HTU21D;62201;49.966;8.342;2023-09-08T14:59:46;37.20;24.23
61641;HTU21D;62201;49.966;8.342;2023-09-08T15:02:12;37.81;23.40
61641;HTU21D;62201;49.966;8.342;2023-09-08T15:04:37;37.92;24.06
61641;HTU21D;62201;49.966;8.342;2023-09-08T15:07:03;37.59;24.30
61641;HTU21D;62201;49.966;8.342;2023-09-08T15:09:28;37.38;24.89